CYTZ/YTZ METAR and TAF weather

Enter ICAO airport designator
Station Type Date Time Source
CYTZ METAR 2018/09/20 18:00 UTC NOAA

CYTZ 201800Z AUTO 08013G19KT 9SM CLR 19/14 A3016 RMK SLP214 DENSITY ALT 400FT


Station Type Date Time Source
CYTZ Decoded METAR 2018/09/20 18:00 UTC NOAA

Toronto Island Airport Automated Reporting Station, Canada (CYTZ) 43-38N 079-24W
Sep 20, 2018 - 02:00 PM EDT / 2018.09.20 1800 UTC
Wind: from the E (080 degrees) at 15 MPH (13 KT) gusting to 22 MPH (19 KT):0
Visibility: 9 mile(s):0
Sky conditions: clear
Temperature: 66 F (19 C)
Dew Point: 57 F (14 C)
Relative Humidity: 72%
Pressure (altimeter): 30.16 in. Hg (1021 hPa)
ob: CYTZ 201800Z AUTO 08013G19KT 9SM CLR 19/14 A3016 RMK SLP214 DENSITY ALT 400FT
cycle: 18

Station Type Date Time Source
CYTZ TAF 2018/09/20 14:39 UTC NOAA

TAF TAF CYTZ 201338Z 2014/2114 11010KT P6SM OVC025
TEMPO 2014/2016 BKN020 OVC120
FM202000 10012KT P6SM -SHRA SCT015 OVC060
FM210000 08012KT P6SM -SHRA BKN012
FM210800 20010KT P6SM -SHRA SCT010 BKN025
TEMPO 2108/2112 5SM -SHRA BR BKN010 OVC025 PROB30 2108/2111 1SM +TSRA BR BKN008 BKN020CB
RMK FCST BASED ON AUTO OBS. NXT FCST BY 202000Z


Example: see airport list